createdAt,value
2019-04-03T00:00:31.023Z,8.70
2019-04-03T00:03:00.841Z,8.70
2019-04-03T00:05:30.936Z,8.70
2019-04-03T00:08:01.061Z,8.60
2019-04-03T00:10:30.797Z,8.60
2019-04-03T00:13:00.578Z,8.60
2019-04-03T00:15:30.217Z,8.70
2019-04-03T00:17:59.976Z,8.60
2019-04-03T00:20:29.601Z,8.70
2019-04-03T00:22:59.288Z,8.70
2019-04-03T00:25:28.951Z,8.90
2019-04-03T00:27:59.361Z,8.90
2019-04-03T00:30:29.123Z,8.90
2019-04-03T00:33:00.152Z,8.90
2019-04-03T00:35:29.792Z,9.00
2019-04-03T00:37:59.928Z,9.10
2019-04-03T00:40:29.616Z,9.10
2019-04-03T00:42:59.262Z,9.10
2019-04-03T00:45:29.024Z,9.10
2019-04-03T00:47:59.007Z,9.20
2019-04-03T00:50:28.735Z,9.30
2019-04-03T00:52:58.683Z,9.20
2019-04-03T00:55:28.927Z,9.20
2019-04-03T00:57:58.668Z,9.10
2019-04-03T01:00:29.070Z,9.10
2019-04-03T01:02:59.120Z,9.10
2019-04-03T01:05:29.259Z,9.20
2019-04-03T01:08:00.155Z,9.20
2019-04-03T01:10:30.566Z,9.10
2019-04-03T01:13:02.092Z,9.20
2019-04-03T01:15:32.191Z,9.30
2019-04-03T01:18:04.243Z,9.30
2019-04-03T01:20:35.970Z,9.30
2019-04-03T01:23:06.914Z,9.40
2019-04-03T01:25:37.833Z,9.40
2019-04-03T01:28:08.153Z,9.40
2019-04-03T01:30:37.978Z,9.40
2019-04-03T01:33:08.186Z,9.40
2019-04-03T01:35:37.828Z,9.50
2019-04-03T01:38:07.763Z,9.40
2019-04-03T01:40:37.380Z,9.50
2019-04-03T01:43:07.076Z,9.40
2019-04-03T01:45:36.710Z,9.40
2019-04-03T01:48:06.400Z,9.50
2019-04-03T01:50:36.095Z,9.30
2019-04-03T01:53:05.919Z,9.30
2019-04-03T01:55:35.497Z,9.30
2019-04-03T01:58:07.103Z,9.30
2019-04-03T02:00:37.668Z,9.30
2019-04-03T02:03:09.862Z,9.10
2019-04-03T02:05:39.752Z,9.10
2019-04-03T02:08:14.238Z,9.00
2019-04-03T02:10:42.679Z,9.00
2019-04-03T02:13:13.312Z,8.90
2019-04-03T02:15:43.986Z,8.90
2019-04-03T02:18:14.020Z,8.80
2019-04-03T02:20:43.787Z,8.70
2019-04-03T02:23:14.089Z,8.60
2019-04-03T02:25:43.743Z,8.60
2019-04-03T02:28:13.573Z,8.50
2019-04-03T02:30:46.103Z,8.50
2019-04-03T02:33:15.889Z,8.40
2019-04-03T02:35:46.582Z,8.40
2019-04-03T02:38:16.799Z,8.40
2019-04-03T02:40:46.660Z,8.60
2019-04-03T02:43:17.007Z,8.90
2019-04-03T02:45:47.228Z,9.10
2019-04-03T02:48:18.386Z,9.30
2019-04-03T02:50:48.626Z,9.20
2019-04-03T02:53:18.477Z,9.40
2019-04-03T02:55:48.096Z,9.40
2019-04-03T02:58:21.314Z,9.30
2019-04-03T03:00:50.366Z,9.20
2019-04-03T03:03:20.193Z,9.10
2019-04-03T03:05:49.896Z,9.00
2019-04-03T03:08:22.622Z,8.80
2019-04-03T03:10:52.909Z,8.80
2019-04-03T03:13:25.409Z,8.80
2019-04-03T03:15:55.333Z,8.80
2019-04-03T03:18:27.178Z,8.90
2019-04-03T03:20:58.866Z,8.90
2019-04-03T03:23:28.611Z,8.90
2019-04-03T03:25:58.497Z,9.00
2019-04-03T03:28:28.865Z,9.00
2019-04-03T03:31:03.628Z,9.10
2019-04-03T03:33:36.937Z,9.10
2019-04-03T03:36:02.783Z,9.00
2019-04-03T03:38:32.714Z,9.00
2019-04-03T03:41:03.114Z,9.00
2019-04-03T03:43:37.241Z,9.00
2019-04-03T03:46:05.927Z,9.00
2019-04-03T03:48:35.793Z,8.90
2019-04-03T03:51:06.554Z,8.90
2019-04-03T03:53:36.665Z,8.90
2019-04-03T03:56:07.329Z,9.00
2019-04-03T03:58:40.251Z,9.00
2019-04-03T04:01:09.312Z,9.00
2019-04-03T04:03:41.067Z,9.00
2019-04-03T04:06:10.669Z,9.00
2019-04-03T04:08:43.547Z,8.80
2019-04-03T04:11:13.422Z,8.80
2019-04-03T04:13:47.649Z,8.80
2019-04-03T04:16:15.022Z,8.80
2019-04-03T04:18:45.191Z,8.80
2019-04-03T04:21:16.172Z,8.70
2019-04-03T04:23:46.513Z,8.70
2019-04-03T04:26:16.541Z,8.60
2019-04-03T04:28:46.618Z,8.70
2019-04-03T04:31:16.226Z,8.70
2019-04-03T04:33:47.937Z,8.70
2019-04-03T04:36:17.590Z,8.70
2019-04-03T04:38:47.775Z,8.80
2019-04-03T04:41:18.286Z,8.70
2019-04-03T04:43:47.999Z,8.70
2019-04-03T04:46:17.629Z,8.70
2019-04-03T04:48:47.427Z,8.70
2019-04-03T04:51:17.120Z,8.70
2019-04-03T04:53:49.655Z,8.70
2019-04-03T04:56:19.435Z,8.70
2019-04-03T04:58:50.377Z,8.70
2019-04-03T05:01:20.231Z,8.60
2019-04-03T05:03:50.059Z,8.60
2019-04-03T05:06:19.704Z,8.50
2019-04-03T05:08:49.451Z,8.40
2019-04-03T05:11:19.108Z,8.40
2019-04-03T05:13:49.062Z,8.30
2019-04-03T05:16:20.728Z,8.40
2019-04-03T05:18:50.383Z,8.40
2019-04-03T05:21:21.747Z,8.40
2019-04-03T05:23:51.659Z,8.40
2019-04-03T05:26:21.894Z,8.40
2019-04-03T05:28:57.111Z,8.40
2019-04-03T05:31:26.548Z,8.40
2019-04-03T05:33:56.496Z,8.40
2019-04-03T05:36:29.242Z,8.50
2019-04-03T05:39:02.757Z,8.50
2019-04-03T05:41:33.665Z,8.50
2019-04-03T05:44:03.346Z,8.50
2019-04-03T05:46:32.939Z,8.50
2019-04-03T05:49:02.865Z,8.60
2019-04-03T05:51:32.672Z,8.60
2019-04-03T05:54:02.390Z,8.60
2019-04-03T05:56:32.066Z,8.60
2019-04-03T05:59:03.052Z,8.60
2019-04-03T06:01:32.759Z,8.70
2019-04-03T06:04:02.549Z,8.70
2019-04-03T06:06:32.461Z,8.80
2019-04-03T06:09:02.521Z,8.80
2019-04-03T06:11:32.496Z,8.80
2019-04-03T06:14:02.317Z,8.90
2019-04-03T06:16:32.826Z,9.10
2019-04-03T06:19:02.461Z,9.10
2019-04-03T06:21:32.313Z,9.00
2019-04-03T06:24:02.255Z,8.90
2019-04-03T06:26:32.115Z,8.90
2019-04-03T06:29:01.920Z,8.90
2019-04-03T06:31:32.178Z,8.90
2019-04-03T06:34:02.007Z,9.00
2019-04-03T06:36:33.650Z,8.90
2019-04-03T06:39:05.394Z,9.00
2019-04-03T06:41:35.184Z,9.00
2019-04-03T06:44:05.244Z,9.10
2019-04-03T06:46:35.579Z,9.10
2019-04-03T06:49:08.252Z,9.10
2019-04-03T06:51:37.472Z,9.20
2019-04-03T06:54:08.221Z,9.10
2019-04-03T06:56:40.009Z,9.10
2019-04-03T06:59:09.514Z,9.20
2019-04-03T07:01:39.270Z,9.40
2019-04-03T07:04:10.173Z,9.50
2019-04-03T07:06:40.804Z,9.50
2019-04-03T07:09:21.837Z,9.50
2019-04-03T07:11:44.096Z,9.30
2019-04-03T07:14:15.140Z,9.50
2019-04-03T07:16:45.487Z,9.40
2019-04-03T07:19:15.524Z,9.60
2019-04-03T07:21:45.186Z,9.70
2019-04-03T07:24:14.995Z,10.00
2019-04-03T07:26:45.195Z,10.60
2019-04-03T07:29:16.961Z,10.70
2019-04-03T07:31:46.607Z,10.80
2019-04-03T07:34:16.520Z,11.00
2019-04-03T07:36:46.463Z,11.30
2019-04-03T07:39:19.082Z,11.00
2019-04-03T07:41:49.149Z,11.20
2019-04-03T07:44:19.042Z,11.10
2019-04-03T07:46:49.618Z,10.60
2019-04-03T07:49:20.044Z,10.20
2019-04-03T07:51:50.263Z,10.20
2019-04-03T07:54:21.852Z,10.30
2019-04-03T07:56:51.320Z,10.40
2019-04-03T07:59:22.402Z,10.20
2019-04-03T08:01:52.945Z,10.00
2019-04-03T08:04:24.797Z,10.10
2019-04-03T08:06:54.294Z,10.10
2019-04-03T08:09:24.143Z,9.90
2019-04-03T08:11:53.827Z,9.90
2019-04-03T08:14:23.504Z,9.90
2019-04-03T08:16:55.952Z,9.90
2019-04-03T08:19:24.588Z,9.90
2019-04-03T08:21:54.254Z,10.00
2019-04-03T08:24:23.957Z,10.10
2019-04-03T08:26:53.689Z,10.10
2019-04-03T08:29:23.823Z,10.20
2019-04-03T08:31:53.664Z,10.20
2019-04-03T08:34:44.165Z,10.40
2019-04-03T08:37:14.047Z,10.40
2019-04-03T08:39:44.331Z,10.80
2019-04-03T08:42:14.022Z,11.10
2019-04-03T08:44:43.835Z,11.10
2019-04-03T08:47:14.892Z,11.00
2019-04-03T08:49:45.276Z,11.00
2019-04-03T08:52:15.164Z,11.00
2019-04-03T08:54:45.178Z,10.90
2019-04-03T08:57:14.829Z,11.00
2019-04-03T08:59:44.528Z,11.00
2019-04-03T09:02:15.266Z,11.10
2019-04-03T09:04:47.501Z,11.10
2019-04-03T09:07:16.925Z,11.00
2019-04-03T09:09:46.858Z,11.00
2019-04-03T09:12:16.567Z,11.00
2019-04-03T09:14:46.310Z,10.80
2019-04-03T09:17:15.989Z,10.80
2019-04-03T09:19:45.971Z,10.80
2019-04-03T09:22:15.782Z,11.00
2019-04-03T09:24:45.722Z,11.00
2019-04-03T09:27:15.393Z,10.90
2019-04-03T09:29:45.882Z,10.90
2019-04-03T09:32:15.836Z,10.80
2019-04-03T09:34:45.878Z,10.80
2019-04-03T09:37:17.617Z,10.90
2019-04-03T09:39:47.178Z,10.70
2019-04-03T09:42:16.856Z,10.50
2019-04-03T09:44:46.676Z,10.30
2019-04-03T09:47:16.422Z,10.20
2019-04-03T09:49:46.067Z,10.30
2019-04-03T09:52:16.115Z,10.20
2019-04-03T09:54:46.281Z,10.00
2019-04-03T09:57:16.150Z,9.90
2019-04-03T09:59:46.173Z,9.80
2019-04-03T10:02:18.728Z,9.80
2019-04-03T10:04:47.881Z,9.80
2019-04-03T10:07:17.682Z,9.70
2019-04-03T10:09:47.547Z,9.70
2019-04-03T10:12:17.340Z,9.80
2019-04-03T10:14:47.256Z,9.90
2019-04-03T10:17:16.991Z,9.90
2019-04-03T10:19:46.796Z,10.00
2019-04-03T10:22:16.585Z,10.10
2019-04-03T10:24:46.444Z,10.20
2019-04-03T10:27:16.182Z,10.10
2019-04-03T10:29:45.923Z,10.10
2019-04-03T10:32:15.952Z,10.10
2019-04-03T10:34:45.786Z,10.30
2019-04-03T10:37:16.078Z,10.70
2019-04-03T10:39:46.324Z,10.70
2019-04-03T10:42:16.286Z,10.90
2019-04-03T10:44:46.505Z,10.60
2019-04-03T10:47:17.104Z,10.50
2019-04-03T10:49:47.129Z,10.70
2019-04-03T10:52:16.722Z,10.80
2019-04-03T10:54:47.188Z,10.40
2019-04-03T10:57:17.090Z,10.40
2019-04-03T10:59:47.938Z,10.20
2019-04-03T11:02:18.083Z,10.00
2019-04-03T11:04:47.750Z,9.90
2019-04-03T11:07:17.256Z,9.90
2019-04-03T11:09:47.042Z,9.90
2019-04-03T11:12:16.974Z,9.70
2019-04-03T11:14:47.163Z,9.80
2019-04-03T11:17:18.425Z,9.60
2019-04-03T11:19:48.814Z,9.50
2019-04-03T11:22:18.339Z,9.30
2019-04-03T11:24:48.172Z,9.10
2019-04-03T11:27:17.844Z,9.20
2019-04-03T11:29:48.347Z,9.20
2019-04-03T11:32:18.236Z,9.00
2019-04-03T11:34:49.325Z,8.70
2019-04-03T11:37:19.455Z,8.60
2019-04-03T11:40:00.766Z,8.50
2019-04-03T11:42:24.852Z,8.40
2019-04-03T11:44:51.907Z,8.60
2019-04-03T11:47:21.489Z,8.60
2019-04-03T11:49:52.533Z,8.60
2019-04-03T11:52:23.247Z,8.40
2019-04-03T11:54:53.484Z,8.30
2019-04-03T11:57:23.224Z,8.40
2019-04-03T11:59:55.428Z,8.30
2019-04-03T12:02:24.481Z,8.10
2019-04-03T12:04:54.482Z,8.20
2019-04-03T12:07:25.112Z,8.20
2019-04-03T12:09:55.716Z,8.30
2019-04-03T12:12:25.249Z,8.50
2019-04-03T12:14:56.824Z,8.60
2019-04-03T12:17:28.786Z,8.60
2019-04-03T12:19:58.815Z,8.70
2019-04-03T12:22:28.609Z,8.70
2019-04-03T12:24:58.270Z,8.50
2019-04-03T12:27:28.532Z,8.40
2019-04-03T12:29:58.664Z,8.30
2019-04-03T12:32:37.459Z,8.30
2019-04-03T12:35:01.603Z,8.30
2019-04-03T12:37:31.391Z,8.30
2019-04-03T12:40:01.576Z,8.20
2019-04-03T12:42:32.104Z,8.20
2019-04-03T12:45:02.031Z,8.10
2019-04-03T12:47:32.041Z,8.40
2019-04-03T12:50:02.173Z,8.40
2019-04-03T12:52:31.948Z,8.20
2019-04-03T12:55:01.864Z,8.20
2019-04-03T12:57:33.083Z,8.00
2019-04-03T13:00:03.453Z,8.00
2019-04-03T13:02:33.542Z,8.10
2019-04-03T13:05:06.341Z,8.00
2019-04-03T13:07:37.392Z,7.80
2019-04-03T13:10:09.245Z,7.70
2019-04-03T13:12:39.278Z,7.90
2019-04-03T13:15:12.867Z,8.00
2019-04-03T13:17:44.390Z,8.10
2019-04-03T13:20:16.692Z,8.10
2019-04-03T13:22:46.535Z,7.90
2019-04-03T13:25:16.268Z,7.80
2019-04-03T13:27:46.162Z,7.90
2019-04-03T13:30:16.712Z,7.80
2019-04-03T13:32:57.409Z,7.80
2019-04-03T13:35:18.709Z,7.80
2019-04-03T13:37:48.643Z,7.80
2019-04-03T13:40:18.832Z,7.70
2019-04-03T13:42:49.486Z,7.70
2019-04-03T13:45:32.658Z,7.80
2019-04-03T13:48:02.369Z,8.10
2019-04-03T13:50:32.666Z,8.30
2019-04-03T13:53:03.623Z,8.40
2019-04-03T13:55:34.566Z,8.40
2019-04-03T13:58:04.966Z,8.50
2019-04-03T14:00:34.991Z,8.70
2019-04-03T14:03:05.043Z,8.90
2019-04-03T14:05:35.897Z,8.80
2019-04-03T14:08:06.800Z,8.80
2019-04-03T14:10:37.342Z,8.70
2019-04-03T14:13:10.756Z,8.90
2019-04-03T14:15:58.332Z,8.90
2019-04-03T14:18:28.411Z,8.60
2019-04-03T14:20:58.960Z,8.60
2019-04-03T14:23:29.560Z,8.70
2019-04-03T14:26:06.156Z,9.00
2019-04-03T14:28:33.351Z,9.20
2019-04-03T14:31:04.896Z,9.00
2019-04-03T14:33:43.581Z,9.00
2019-04-03T14:36:05.946Z,9.00
2019-04-03T14:38:36.539Z,9.20
2019-04-03T14:41:06.467Z,9.20
2019-04-03T14:43:36.234Z,9.30
2019-04-03T14:46:06.442Z,9.30
2019-04-03T14:48:36.268Z,9.30
2019-04-03T14:51:07.258Z,9.40
2019-04-03T14:53:37.361Z,9.40
2019-04-03T14:56:07.322Z,9.30
2019-04-03T14:58:37.119Z,9.50
2019-04-03T15:01:06.904Z,9.60
2019-04-03T15:03:37.174Z,9.60
2019-04-03T15:06:06.975Z,9.60
2019-04-03T15:08:37.012Z,9.80
2019-04-03T15:11:06.785Z,9.90
2019-04-03T15:13:36.774Z,10.10
2019-04-03T15:16:06.720Z,9.80
2019-04-03T15:18:36.476Z,9.80
2019-04-03T15:21:06.714Z,9.60
2019-04-03T15:23:40.763Z,9.60
2019-04-03T15:26:08.180Z,9.50
2019-04-03T15:28:38.307Z,9.60
2019-04-03T15:31:08.811Z,9.60
2019-04-03T15:33:38.944Z,9.50
2019-04-03T15:36:08.892Z,9.50
2019-04-03T15:38:38.691Z,9.40
2019-04-03T15:41:08.392Z,9.50
2019-04-03T15:43:38.257Z,9.40
2019-04-03T15:46:08.629Z,9.50
2019-04-03T15:48:39.993Z,9.50
2019-04-03T15:51:09.976Z,9.30
2019-04-03T15:53:39.755Z,9.40
2019-04-03T15:56:11.829Z,9.50
2019-04-03T15:58:40.960Z,9.50
2019-04-03T16:01:10.682Z,9.40
2019-04-03T16:03:41.035Z,9.30
2019-04-03T16:06:10.892Z,9.30
2019-04-03T16:08:43.395Z,9.30
2019-04-03T16:11:12.091Z,9.30
2019-04-03T16:13:41.746Z,9.10
2019-04-03T16:16:11.560Z,9.20
2019-04-03T16:18:41.252Z,9.20
2019-04-03T16:21:10.977Z,9.30
2019-04-03T16:23:40.634Z,9.40
2019-04-03T16:26:10.450Z,9.40
2019-04-03T16:28:40.093Z,9.40
2019-04-03T16:31:09.821Z,9.30
2019-04-03T16:33:39.943Z,9.30
2019-04-03T16:36:09.940Z,9.20
2019-04-03T16:38:40.374Z,9.20
2019-04-03T16:41:11.288Z,9.20
2019-04-03T16:43:41.615Z,9.00
2019-04-03T16:46:11.634Z,9.00
2019-04-03T16:48:41.514Z,8.90
2019-04-03T16:51:11.365Z,8.80
2019-04-03T16:53:41.415Z,8.80
2019-04-03T16:56:11.793Z,8.80
2019-04-03T16:58:42.934Z,8.70
2019-04-03T17:01:14.440Z,8.70
2019-04-03T17:03:44.707Z,8.70
2019-04-03T17:06:16.283Z,8.70
2019-04-03T17:08:45.983Z,8.70
2019-04-03T17:11:15.851Z,8.60
2019-04-03T17:13:45.675Z,8.60
2019-04-03T17:16:15.470Z,8.60
2019-04-03T17:18:47.149Z,8.70
2019-04-03T17:21:16.626Z,8.80
2019-04-03T17:23:46.779Z,8.80
2019-04-03T17:26:16.756Z,8.70
2019-04-03T17:28:47.092Z,8.70
2019-04-03T17:31:16.952Z,8.70
2019-04-03T17:33:47.295Z,8.70
2019-04-03T17:36:19.823Z,8.60
2019-04-03T17:38:48.696Z,8.60
2019-04-03T17:41:18.476Z,8.60
2019-04-03T17:43:48.285Z,8.50
2019-04-03T17:46:18.239Z,8.50
2019-04-03T17:48:48.117Z,8.50
2019-04-03T17:51:17.891Z,8.40
2019-04-03T17:53:47.622Z,8.40
2019-04-03T17:56:17.289Z,8.40
2019-04-03T17:58:48.001Z,8.40
2019-04-03T18:01:18.337Z,8.40
2019-04-03T18:03:49.681Z,8.30
2019-04-03T18:06:19.492Z,8.40
2019-04-03T18:08:49.427Z,8.40
2019-04-03T18:11:19.804Z,8.30
2019-04-03T18:13:49.501Z,8.30
2019-04-03T18:16:19.265Z,8.30
2019-04-03T18:18:50.009Z,8.30
2019-04-03T18:21:20.056Z,8.30
2019-04-03T18:23:52.664Z,8.20
2019-04-03T18:26:21.722Z,8.30
2019-04-03T18:28:51.585Z,8.30
2019-04-03T18:31:21.391Z,8.30
2019-04-03T18:33:51.632Z,8.30
2019-04-03T18:36:21.270Z,8.30
2019-04-03T18:38:50.966Z,8.30
2019-04-03T18:41:20.653Z,8.30
2019-04-03T18:43:50.523Z,8.30
2019-04-03T18:46:31.518Z,8.30
2019-04-03T18:48:54.646Z,8.30
2019-04-03T18:51:23.626Z,8.30
2019-04-03T18:53:53.281Z,8.30
2019-04-03T18:56:23.282Z,8.30
2019-04-03T18:58:53.121Z,8.30
2019-04-03T19:01:24.554Z,8.30
2019-04-03T19:03:54.682Z,8.20
2019-04-03T19:06:24.483Z,8.20
2019-04-03T19:08:54.353Z,8.30
2019-04-03T19:11:24.367Z,8.30
2019-04-03T19:13:54.238Z,8.30
2019-04-03T19:16:31.196Z,8.30
2019-04-03T19:19:07.346Z,8.30
2019-04-03T19:21:28.718Z,8.30
2019-04-03T19:23:58.793Z,8.30
2019-04-03T19:26:30.056Z,8.30
2019-04-03T19:29:00.981Z,8.30
2019-04-03T19:31:31.462Z,8.20
2019-04-03T19:34:01.673Z,8.10
2019-04-03T19:36:31.969Z,8.10
2019-04-03T19:39:01.725Z,8.00
2019-04-03T19:41:31.610Z,7.90
2019-04-03T19:44:01.320Z,7.90
2019-04-03T19:46:31.440Z,7.80
2019-04-03T19:49:01.191Z,7.70
2019-04-03T19:51:30.958Z,7.70
2019-04-03T19:54:00.798Z,7.60
2019-04-03T19:56:30.446Z,7.60
2019-04-03T19:59:00.259Z,7.50
2019-04-03T20:01:30.397Z,7.40
2019-04-03T20:04:00.505Z,7.30
2019-04-03T20:06:30.240Z,7.20
2019-04-03T20:09:00.937Z,7.20
2019-04-03T20:11:31.438Z,7.10
2019-04-03T20:14:01.691Z,7.10
2019-04-03T20:16:31.737Z,7.00
2019-04-03T20:19:01.606Z,7.00
2019-04-03T20:21:31.279Z,7.00
2019-04-03T20:24:00.984Z,7.10
2019-04-03T20:26:30.804Z,7.10
2019-04-03T20:29:02.292Z,7.10
2019-04-03T20:31:35.461Z,6.90
2019-04-03T20:34:04.066Z,7.10
2019-04-03T20:36:33.876Z,7.00
2019-04-03T20:39:05.563Z,7.00
2019-04-03T20:41:35.334Z,7.00
2019-04-03T20:44:05.115Z,7.00
2019-04-03T20:46:34.756Z,6.90
2019-04-03T20:49:05.365Z,6.90
2019-04-03T20:51:35.142Z,6.90
2019-04-03T20:54:05.379Z,6.90
2019-04-03T20:56:35.063Z,6.90
2019-04-03T20:59:04.748Z,6.90
2019-04-03T21:01:35.423Z,6.90
2019-04-03T21:04:06.052Z,6.90
2019-04-03T21:06:37.284Z,6.90
2019-04-03T21:09:09.012Z,6.90
2019-04-03T21:11:38.685Z,6.90
2019-04-03T21:14:10.997Z,6.90
2019-04-03T21:16:40.436Z,6.80
2019-04-03T21:19:10.203Z,6.80
2019-04-03T21:21:39.933Z,6.90
2019-04-03T21:24:09.650Z,6.80
2019-04-03T21:26:39.529Z,6.90
2019-04-03T21:29:09.098Z,6.90
2019-04-03T21:31:38.837Z,6.90
2019-04-03T21:34:08.590Z,6.80
2019-04-03T21:36:38.793Z,6.80
2019-04-03T21:39:12.601Z,6.80
2019-04-03T21:41:41.090Z,6.80
2019-04-03T21:44:10.593Z,6.70
2019-04-03T21:46:40.469Z,6.70
2019-04-03T21:49:10.153Z,6.70
2019-04-03T21:51:39.992Z,6.70
2019-04-03T21:54:09.594Z,6.80
2019-04-03T21:56:39.358Z,6.80
2019-04-03T21:59:10.752Z,6.70
2019-04-03T22:01:40.557Z,6.70
2019-04-03T22:04:10.178Z,6.70
2019-04-03T22:06:40.297Z,6.70
2019-04-03T22:09:13.773Z,6.70
2019-04-03T22:11:43.348Z,6.60
2019-04-03T22:14:12.887Z,6.60
2019-04-03T22:16:43.185Z,6.60
2019-04-03T22:19:12.793Z,6.70
2019-04-03T22:21:42.549Z,6.60
2019-04-03T22:24:12.553Z,6.70
2019-04-03T22:26:42.470Z,6.60
2019-04-03T22:29:12.078Z,6.60
2019-04-03T22:31:41.692Z,6.60
2019-04-03T22:34:11.503Z,6.50
2019-04-03T22:36:41.522Z,6.50
2019-04-03T22:39:13.660Z,6.50
2019-04-03T22:41:43.447Z,6.50
2019-04-03T22:44:16.679Z,6.60
2019-04-03T22:46:45.157Z,6.70
2019-04-03T22:49:14.815Z,6.70
2019-04-03T22:51:44.778Z,6.70
2019-04-03T22:54:14.387Z,6.60
2019-04-03T22:56:45.917Z,6.70
2019-04-03T22:59:15.588Z,6.70
2019-04-03T23:01:45.298Z,6.70
2019-04-03T23:04:14.978Z,6.70
2019-04-03T23:06:44.985Z,6.60
2019-04-03T23:09:14.592Z,6.50
2019-04-03T23:11:44.112Z,6.50
2019-04-03T23:14:13.762Z,6.50
2019-04-03T23:16:43.569Z,6.60
2019-04-03T23:19:13.176Z,6.60
2019-04-03T23:21:43.044Z,6.50
2019-04-03T23:24:12.689Z,6.40
2019-04-03T23:26:42.292Z,6.30
2019-04-03T23:29:12.029Z,6.40
2019-04-03T23:31:44.643Z,6.50
2019-04-03T23:34:13.562Z,6.60
2019-04-03T23:36:43.406Z,6.60
2019-04-03T23:39:13.398Z,6.50
2019-04-03T23:41:43.029Z,6.50
2019-04-03T23:44:12.882Z,6.50
2019-04-03T23:46:45.392Z,6.40
2019-04-03T23:49:14.158Z,6.40
2019-04-03T23:51:43.742Z,6.50
2019-04-03T23:54:13.579Z,6.50
2019-04-03T23:56:43.281Z,6.50
2019-04-03T23:59:13.574Z,6.50
